Time;durP1;ratioP1;P1;durP2;ratioP2;P2;SDS_P1;SDS_P2;PMS_P1;PMS_P2;Temp;Humidity;BMP_temperature;BMP_pressure;BME280_temperature;BME280_humidity;BME280_pressure;Samples;Min_cycle;Max_cycle;Signal;HPM_P1;HPM_P2
2023/10/02 00:02:06;;;;;;;6.85;3.05;;;20.90;76.10;;;;;;6279771;22;20482;-68
2023/10/02 00:04:35;;;;;;;5.72;2.80;;;20.90;76.10;;;;;;6278774;22;20080;-68
2023/10/02 00:07:07;;;;;;;7.53;2.88;;;20.80;76.00;;;;;;6304977;22;20024;-68
2023/10/02 00:09:34;;;;;;;6.15;2.78;;;20.90;76.00;;;;;;6278271;22;20026;-68
2023/10/02 00:12:01;;;;;;;6.57;2.80;;;20.80;76.00;;;;;;6280318;22;20092;-69
2023/10/02 00:14:34;;;;;;;7.28;3.20;;;20.80;76.00;;;;;;6278324;22;20064;-68
2023/10/02 00:17:03;;;;;;;8.15;3.00;;;20.80;76.00;;;;;;6279666;22;20023;-68
2023/10/02 00:19:41;;;;;;;7.55;3.50;;;20.80;76.00;;;;;;6279522;22;20516;-68
2023/10/02 00:22:34;;;;;;;6.53;2.90;;;20.80;75.90;;;;;;6278888;22;20035;-68
2023/10/02 00:25:03;;;;;;;6.72;3.25;;;20.80;75.90;;;;;;6278980;22;20015;-68
2023/10/02 00:27:29;;;;;;;7.28;3.05;;;20.80;76.00;;;;;;6305281;22;20095;-68
2023/10/02 00:29:58;;;;;;;6.43;2.92;;;20.80;76.00;;;;;;6279787;22;20082;-69
2023/10/02 00:32:34;;;;;;;6.13;2.92;;;20.80;75.90;;;;;;6279207;22;20019;-68
2023/10/02 00:35:03;;;;;;;8.00;3.42;;;20.80;75.90;;;;;;6278668;22;20025;-69
2023/10/02 00:37:44;;;;;;;7.07;3.03;;;20.80;76.00;;;;;;6254019;22;20011;-68
2023/10/02 00:40:20;;;;;;;7.35;3.20;;;20.80;76.00;;;;;;6279605;22;20346;-68
2023/10/02 00:42:56;;;;;;;5.95;2.80;;;20.80;76.00;;;;;;6253958;22;20340;-68
2023/10/02 00:45:23;;;;;;;7.10;3.15;;;20.80;75.90;;;;;;6279437;22;20084;-68
2023/10/02 00:47:49;;;;;;;5.63;2.92;;;20.80;75.90;;;;;;6279953;22;20309;-68
2023/10/02 00:50:18;;;;;;;6.22;3.15;;;20.80;75.90;;;;;;6253038;22;20025;-68
2023/10/02 00:52:47;;;;;;;6.35;3.10;;;20.80;75.90;;;;;;6307048;22;20032;-68
2023/10/02 00:55:15;;;;;;;7.00;3.28;;;20.80;75.80;;;;;;6278396;22;20019;-68
2023/10/02 00:57:41;;;;;;;7.32;3.58;;;20.80;75.80;;;;;;6254443;22;20042;-68
2023/10/02 01:00:20;;;;;;;7.97;3.40;;;20.80;75.80;;;;;;6279668;22;20069;-68
2023/10/02 01:02:46;;;;;;;7.18;3.50;;;20.80;75.80;;;;;;6278869;22;20077;-68
2023/10/02 01:05:16;;;;;;;7.95;3.58;;;20.80;75.80;;;;;;6278729;22;20149;-69
2023/10/02 01:07:43;;;;;;;6.90;3.28;;;20.80;75.80;;;;;;6280117;22;20027;-68
2023/10/02 01:10:17;;;;;;;7.30;2.95;;;20.70;75.80;;;;;;6306141;22;20019;-69
2023/10/02 01:12:49;;;;;;;6.07;2.88;;;20.80;75.90;;;;;;6279466;22;20102;-69
2023/10/02 01:15:16;;;;;;;8.15;3.42;;;20.80;75.90;;;;;;6280459;22;20054;-68
2023/10/02 01:17:45;;;;;;;6.13;2.90;;;20.80;75.80;;;;;;6278716;22;20030;-67
2023/10/02 01:20:20;;;;;;;6.50;2.92;;;20.80;75.80;;;;;;6253849;22;20098;-66
2023/10/02 01:22:51;;;;;;;7.72;3.70;;;20.80;75.80;;;;;;6279539;22;20082;-66
2023/10/02 01:25:18;;;;;;;6.88;3.53;;;20.80;75.80;;;;;;6253932;22;20158;-68
2023/10/02 01:27:47;;;;;;;8.02;3.55;;;20.70;75.70;;;;;;6254441;22;20022;-69
2023/10/02 01:30:17;;;;;;;5.85;2.92;;;20.70;75.70;;;;;;6305943;22;20090;-69
2023/10/02 01:33:12;;;;;;;6.18;2.97;;;20.80;75.80;;;;;;6279378;22;20086;-68
2023/10/02 01:35:48;;;;;;;7.13;2.95;;;20.70;75.70;;;;;;6279326;22;20026;-69
2023/10/02 01:38:29;;;;;;;7.53;3.42;;;20.70;75.70;;;;;;6278198;22;20061;-68
2023/10/02 01:41:02;;;;;;;7.32;3.20;;;20.70;75.70;;;;;;6279561;22;20023;-68
2023/10/02 01:43:27;;;;;;;7.10;3.20;;;20.70;75.70;;;;;;6306528;22;20019;-69
2023/10/02 01:46:00;;;;;;;6.90;3.35;;;20.70;75.70;;;;;;6254733;22;20098;-68
2023/10/02 01:48:41;;;;;;;5.80;3.00;;;20.70;75.70;;;;;;6281328;22;20046;-68
2023/10/02 01:51:20;;;;;;;6.30;2.97;;;20.70;75.70;;;;;;6308593;22;20027;-69
2023/10/02 01:53:48;;;;;;;7.70;3.70;;;20.70;75.70;;;;;;6308906;22;20076;-68
2023/10/02 01:56:15;;;;;;;;;;;20.70;75.70;;;;;;6281494;22;20037;-69
2023/10/02 01:58:41;;;;;;;7.55;3.00;;;20.70;75.60;;;;;;6280454;22;19915;-69
2023/10/02 02:01:09;;;;;;;7.03;3.20;;;20.70;75.70;;;;;;6281277;22;20053;-69
2023/10/02 02:03:46;;;;;;;6.47;3.17;;;20.70;75.70;;;;;;6307356;22;20500;-68
2023/10/02 02:06:16;;;;;;;7.60;3.20;;;20.70;75.70;;;;;;6279590;22;20027;-69
2023/10/02 02:08:43;;;;;;;6.82;3.13;;;20.70;75.70;;;;;;6281746;22;20029;-69
2023/10/02 02:11:16;;;;;;;5.82;3.00;;;20.70;75.70;;;;;;6281011;22;20086;-69
2023/10/02 02:13:47;;;;;;;6.28;3.47;;;20.70;75.70;;;;;;6280476;22;20099;-68
2023/10/02 02:16:25;;;;;;;6.68;3.17;;;20.70;75.70;;;;;;6280897;22;20019;-69
2023/10/02 02:18:53;;;;;;;6.18;2.88;;;20.70;75.70;;;;;;6281257;22;20046;-69
2023/10/02 02:21:19;;;;;;;7.22;3.58;;;20.70;75.70;;;;;;6279955;22;20348;-69
2023/10/02 02:23:46;;;;;;;6.95;3.40;;;20.70;75.70;;;;;;6281196;22;20507;-68
2023/10/02 02:26:21;;;;;;;7.07;3.45;;;20.70;75.70;;;;;;6280937;22;20010;-69
2023/10/02 02:28:51;;;;;;;6.30;3.03;;;20.70;75.70;;;;;;6308050;22;20041;-69
2023/10/02 02:31:39;;;;;;;7.47;3.33;;;20.70;75.80;;;;;;6280491;22;20019;-69
2023/10/02 02:34:14;;;;;;;7.78;3.30;;;20.70;75.70;;;;;;6307731;22;20016;-68
2023/10/02 02:36:41;;;;;;;7.47;3.13;;;20.70;75.80;;;;;;6281248;22;20439;-69
2023/10/02 02:39:18;;;;;;;7.22;3.13;;;20.70;75.70;;;;;;6281081;22;20090;-68
2023/10/02 02:41:47;;;;;;;8.20;3.08;;;20.70;75.70;;;;;;6280066;22;20591;-68
2023/10/02 02:44:36;;;;;;;7.15;3.22;;;20.70;75.70;;;;;;6308002;22;20499;-69
2023/10/02 02:47:07;;;;;;;7.00;3.35;;;20.70;75.70;;;;;;6280506;22;20042;-68
2023/10/02 02:49:48;;;;;;;7.15;3.03;;;20.70;75.70;;;;;;6307653;22;20016;-69
2023/10/02 02:52:17;;;;;;;7.07;3.13;;;20.70;75.70;;;;;;6280659;22;20049;-69
2023/10/02 02:54:47;;;;;;;7.57;3.22;;;20.70;75.70;;;;;;6279905;22;20011;-69
2023/10/02 02:57:14;;;;;;;6.95;3.22;;;20.70;75.70;;;;;;6308160;22;20093;-68
2023/10/02 02:59:40;;;;;;;7.18;3.45;;;20.60;75.60;;;;;;6280729;22;20034;-68
2023/10/02 03:02:08;;;;;;;6.10;3.25;;;20.60;75.60;;;;;;6280111;22;20435;-68
2023/10/02 03:04:40;;;;;;;6.13;3.13;;;20.60;75.60;;;;;;6280599;22;20050;-68
2023/10/02 03:07:09;;;;;;;6.60;3.50;;;20.60;75.60;;;;;;6280596;22;20015;-68
2023/10/02 03:09:36;;;;;;;7.88;3.50;;;20.60;75.60;;;;;;6279865;22;20023;-68
2023/10/02 03:12:05;;;;;;;6.70;3.40;;;20.60;75.60;;;;;;6308286;22;20015;-68
2023/10/02 03:14:32;;;;;;;7.25;2.80;;;20.60;75.60;;;;;;6280321;22;20324;-68
2023/10/02 03:17:22;;;;;;;6.28;3.28;;;20.60;75.60;;;;;;6279591;22;20043;-68
2023/10/02 03:19:45;;;;;;;8.15;3.60;;;20.60;75.60;;;;;;6307759;22;20335;-69
2023/10/02 03:22:11;;;;;;;7.88;3.55;;;20.60;75.60;;;;;;6280368;22;20019;-69
2023/10/02 03:24:39;;;;;;;7.30;3.38;;;20.60;75.60;;;;;;6279815;22;20026;-69
2023/10/02 03:27:08;;;;;;;;;;;20.60;75.60;;;;;;6280939;22;20451;-69
2023/10/02 03:29:34;;;;;;;7.32;3.08;;;20.60;75.50;;;;;;6280653;22;19937;-68
2023/10/02 03:31:59;;;;;;;7.60;3.47;;;20.60;75.60;;;;;;6279793;22;20042;-69
2023/10/02 03:34:27;;;;;;;7.95;3.75;;;20.60;75.60;;;;;;6307330;22;20428;-69
2023/10/02 03:37:14;;;;;;;6.72;3.03;;;20.60;75.60;;;;;;6279788;22;20026;-69
2023/10/02 03:39:52;;;;;;;7.95;3.53;;;20.60;75.60;;;;;;6280405;22;20007;-69
2023/10/02 03:42:31;;;;;;;8.35;3.78;;;20.60;75.60;;;;;;6280307;22;20025;-69
2023/10/02 03:44:56;;;;;;;;;;;20.60;75.60;;;;;;6280223;22;20313;-69
2023/10/02 03:47:23;;;;;;;6.85;3.10;;;20.60;75.60;;;;;;6280298;22;19964;-68
2023/10/02 03:49:49;;;;;;;6.78;3.42;;;20.60;75.60;;;;;;6280439;22;20065;-69
2023/10/02 03:52:16;;;;;;;5.85;2.92;;;20.60;75.70;;;;;;6279172;22;20098;-69
2023/10/02 03:54:45;;;;;;;7.85;3.50;;;20.60;75.60;;;;;;6280308;22;20072;-69
2023/10/02 03:57:37;;;;;;;7.07;3.33;;;20.60;75.60;;;;;;6279381;22;20093;-69
2023/10/02 04:00:17;;;;;;;6.47;3.40;;;20.60;75.60;;;;;;6279054;22;20052;-69
2023/10/02 04:02:45;;;;;;;7.45;3.50;;;20.60;75.60;;;;;;6279595;22;20338;-69
2023/10/02 04:05:12;;;;;;;6.65;2.95;;;20.50;75.60;;;;;;6277670;22;20007;-69
2023/10/02 04:07:37;;;;;;;8.00;3.70;;;20.60;75.60;;;;;;6278752;22;20023;-69
2023/10/02 04:10:06;;;;;;;7.82;3.47;;;20.60;75.60;;;;;;6280274;22;20018;-69
2023/10/02 04:12:50;;;;;;;6.45;3.20;;;20.60;75.60;;;;;;6278984;22;20125;-69
2023/10/02 04:15:16;;;;;;;6.53;3.08;;;20.60;75.60;;;;;;6279352;22;20019;-69
2023/10/02 04:17:49;;;;;;;7.43;3.55;;;20.60;75.60;;;;;;6280310;22;20020;-69
2023/10/02 04:20:27;;;;;;;6.95;3.28;;;20.60;76.20;;;;;;6305173;22;20026;-69
2023/10/02 04:22:55;;;;;;;7.75;3.60;;;20.60;75.50;;;;;;6280205;22;20016;-69
2023/10/02 04:25:24;;;;;;;7.57;3.58;;;20.50;75.50;;;;;;6279482;22;20019;-69
2023/10/02 04:32:51;;;;;;;6.80;3.50;;;20.50;75.50;;;;;;6280105;22;20057;-69
2023/10/02 04:38:07;;;;;;;7.90;3.47;;;20.60;75.50;;;;;;6307550;22;20019;-69
2023/10/02 04:40:55;;;;;;;7.43;3.65;;;20.50;75.50;;;;;;6278430;22;20436;-69
2023/10/02 04:43:19;;;;;;;9.57;4.10;;;20.50;75.50;;;;;;6278666;22;20098;-68
2023/10/02 04:45:46;;;;;;;7.10;3.25;;;20.50;75.50;;;;;;6307362;22;20108;-69
2023/10/02 04:48:13;;;;;;;9.23;3.57;;;20.50;76.10;;;;;;6305954;22;20090;-67
2023/10/02 04:50:45;;;;;;;7.38;3.80;;;20.50;75.40;;;;;;6278605;22;20343;-67
2023/10/02 04:55:42;;;;;;;7.28;3.85;;;20.50;75.40;;;;;;6278768;22;20027;-67
2023/10/02 04:58:19;;;;;;;7.63;3.60;;;20.50;75.40;;;;;;6279317;22;20015;-67
2023/10/02 05:03:34;;;;;;;8.70;3.67;;;20.50;75.40;;;;;;6278783;22;20027;-66
2023/10/02 05:06:00;;;;;;;7.07;3.70;;;20.50;75.40;;;;;;6279494;22;20030;-66
2023/10/02 05:09:12;;;;;;;8.30;3.65;;;20.50;75.40;;;;;;6305781;22;20011;-66
2023/10/02 05:11:45;;;;;;;8.73;4.00;;;20.50;75.40;;;;;;6278968;22;20023;-67
2023/10/02 05:14:13;;;;;;;7.30;3.45;;;20.50;75.40;;;;;;6279248;22;20020;-67
2023/10/02 05:16:40;;;;;;;7.85;3.97;;;20.50;75.40;;;;;;6278751;22;20030;-67
2023/10/02 05:19:07;;;;;;;7.45;3.65;;;20.50;75.40;;;;;;6279103;22;20076;-67
2023/10/02 05:21:39;;;;;;;7.28;3.40;;;20.50;75.40;;;;;;6278852;22;20027;-67
2023/10/02 05:24:06;;;;;;;8.00;4.13;;;20.50;75.40;;;;;;6278537;22;20012;-67
2023/10/02 05:26:34;;;;;;;7.72;3.40;;;20.50;75.40;;;;;;6279632;22;20039;-69
2023/10/02 05:29:06;;;;;;;8.40;3.97;;;20.50;75.40;;;;;;6279299;22;20015;-70
2023/10/02 05:31:41;;;;;;;7.68;4.10;;;20.50;75.40;;;;;;6278282;22;20068;-69
2023/10/02 05:34:23;;;;;;;7.63;3.60;;;20.50;75.30;;;;;;6279651;22;20015;-69
2023/10/02 05:39:40;;;;;;;8.13;3.75;;;20.50;75.40;;;;;;6306847;22;20019;-67
2023/10/02 05:42:07;;;;;;;7.95;4.22;;;20.50;75.30;;;;;;6279554;22;20050;-66
2023/10/02 05:44:33;;;;;;;8.90;3.88;;;20.50;75.30;;;;;;6277248;22;20640;-69
2023/10/02 05:47:05;;;;;;;8.00;3.35;;;20.50;75.30;;;;;;6279226;22;20090;-69
2023/10/02 05:49:32;;;;;;;7.32;3.72;;;20.50;75.30;;;;;;6278998;22;20098;-66
2023/10/02 05:52:00;;;;;;;7.72;3.50;;;20.50;76.00;;;;;;6278624;22;20022;-67
2023/10/02 05:54:29;;;;;;;7.55;3.35;;;20.50;75.30;;;;;;6278963;22;20435;-67
2023/10/02 05:57:08;;;;;;;7.85;3.55;;;20.50;75.30;;;;;;6279256;22;20064;-67
2023/10/02 05:59:44;;;;;;;9.40;3.95;;;20.50;75.30;;;;;;6278199;22;20026;-66
2023/10/02 06:02:19;;;;;;;8.25;3.90;;;20.50;75.30;;;;;;6279113;22;20098;-67
2023/10/02 06:04:49;;;;;;;8.65;4.00;;;20.50;75.40;;;;;;6278273;22;20026;-67
2023/10/02 06:07:19;;;;;;;9.30;4.18;;;20.40;75.30;;;;;;6278817;22;20347;-67
2023/10/02 06:09:46;;;;;;;9.52;4.03;;;20.40;75.40;;;;;;6279234;22;20470;-67
2023/10/02 06:12:12;;;;;;;8.60;3.67;;;20.50;75.40;;;;;;6277528;22;20468;-65
2023/10/02 06:14:39;;;;;;;7.57;3.75;;;20.40;75.40;;;;;;6278900;22;20015;-66
2023/10/02 06:17:11;;;;;;;10.52;4.05;;;20.50;75.50;;;;;;6278271;22;20015;-65
2023/10/02 06:19:43;;;;;;;9.20;4.40;;;20.50;75.50;;;;;;6277842;22;20019;-66
2023/10/02 06:22:13;;;;;;;10.00;4.03;;;20.50;75.60;;;;;;6278562;22;20386;-66
2023/10/02 06:24:40;;;;;;;12.05;4.78;;;20.50;75.60;;;;;;6306692;22;20062;-66
2023/10/02 06:27:12;;;;;;;10.50;4.80;;;20.50;75.80;;;;;;6277762;22;20018;-66
2023/10/02 06:29:38;;;;;;;11.70;4.57;;;20.50;75.90;;;;;;6306874;22;20023;-66
2023/10/02 06:32:11;;;;;;;8.02;3.58;;;20.50;76.10;;;;;;6308318;22;20327;-66
2023/10/02 06:34:37;;;;;;;11.10;4.15;;;20.50;76.10;;;;;;6280127;22;20057;-66
2023/10/02 06:37:07;;;;;;;8.80;4.22;;;20.50;76.00;;;;;;6280904;22;20338;-67
2023/10/02 06:39:36;;;;;;;11.63;4.85;;;20.50;76.00;;;;;;6280791;22;20514;-67
2023/10/02 06:42:05;;;;;;;9.00;3.95;;;20.50;76.10;;;;;;6280663;22;20019;-67
2023/10/02 06:44:41;;;;;;;8.88;4.13;;;20.60;76.10;;;;;;6307388;22;20019;-67
2023/10/02 06:47:13;;;;;;;13.38;4.75;;;20.60;76.10;;;;;;6279722;22;20042;-69
2023/10/02 06:49:40;;;;;;;9.98;4.43;;;20.60;76.20;;;;;;6308090;22;20031;-71
2023/10/02 06:52:15;;;;;;;10.02;4.45;;;20.60;76.20;;;;;;6280841;22;20338;-70
2023/10/02 06:54:45;;;;;;;11.60;4.78;;;20.60;76.20;;;;;;6279757;22;20317;-70
2023/10/02 06:57:18;;;;;;;9.52;4.63;;;20.60;76.20;;;;;;6280494;22;20047;-66
2023/10/02 06:59:51;;;;;;;11.27;4.70;;;20.60;76.30;;;;;;6308324;22;20117;-67
2023/10/02 07:02:27;;;;;;;8.82;4.00;;;20.60;76.30;;;;;;6278744;22;20015;-66
2023/10/02 07:04:55;;;;;;;8.80;4.30;;;20.70;76.50;;;;;;6280466;22;20015;-67
2023/10/02 07:07:29;;;;;;;11.65;4.70;;;20.70;76.50;;;;;;6280333;22;20057;-69
2023/10/02 07:10:07;;;;;;;9.80;4.22;;;20.70;76.50;;;;;;6279824;22;20018;-67
2023/10/02 07:12:39;;;;;;;13.15;4.28;;;20.70;76.50;;;;;;6280474;22;20027;-70
2023/10/02 07:15:10;;;;;;;11.18;4.38;;;20.70;76.40;;;;;;6307353;22;20114;-67
2023/10/02 07:18:04;;;;;;;9.75;4.65;;;20.70;76.50;;;;;;6280850;22;20077;-67
2023/10/02 07:20:42;;;;;;;10.45;4.40;;;20.70;76.50;;;;;;6278308;22;20419;-67
2023/10/02 07:23:13;;;;;;;9.65;4.85;;;20.70;76.50;;;;;;6306715;22;20102;-69
2023/10/02 07:25:41;;;;;;;10.25;4.80;;;20.70;76.50;;;;;;6280107;22;20019;-69
2023/10/02 07:28:07;;;;;;;;;;;20.70;76.50;;;;;;6280685;22;20094;-69
2023/10/02 07:30:33;;;;;;;10.85;4.45;;;20.70;76.40;;;;;;6278331;22;20171;-68
2023/10/02 07:33:03;;;;;;;10.43;4.53;;;20.70;76.40;;;;;;6280006;22;20339;-67
2023/10/02 07:35:29;;;;;;;10.85;4.53;;;20.70;76.40;;;;;;6279174;22;20080;-66
2023/10/02 07:38:00;;;;;;;11.23;4.70;;;20.70;76.40;;;;;;6278665;22;20098;-66
2023/10/02 07:40:27;;;;;;;11.43;4.38;;;20.70;76.40;;;;;;6279138;22;20082;-66
2023/10/02 07:42:53;;;;;;;10.10;4.78;;;20.70;76.40;;;;;;6278877;22;20091;-67
2023/10/02 07:45:25;;;;;;;10.95;5.35;;;20.70;76.50;;;;;;6307119;22;20043;-67
2023/10/02 07:48:11;;;;;;;10.27;4.60;;;20.70;76.50;;;;;;6280092;22;20019;-67
2023/10/02 07:50:41;;;;;;;10.15;4.50;;;20.70;76.50;;;;;;6278775;22;20428;-67
2023/10/02 07:53:07;;;;;;;10.38;4.32;;;20.70;76.50;;;;;;6307813;22;20019;-66
2023/10/02 07:55:34;;;;;;;11.23;5.25;;;20.80;76.60;;;;;;6279795;22;20065;-66
2023/10/02 07:58:01;;;;;;;9.18;4.55;;;20.70;77.20;;;;;;6306649;22;20098;-66
2023/10/02 08:00:33;;;;;;;10.93;5.25;;;20.80;76.70;;;;;;6278957;22;20090;-70
2023/10/02 08:03:02;;;;;;;8.98;4.90;;;20.80;76.80;;;;;;6277949;22;20435;-69
2023/10/02 08:05:28;;;;;;;16.35;5.60;;;20.80;76.70;;;;;;6277847;22;20444;-69
2023/10/02 08:08:08;;;;;;;12.02;5.10;;;20.80;76.70;;;;;;6278388;22;20129;-69
2023/10/02 08:10:49;;;;;;;12.93;5.25;;;20.80;76.60;;;;;;6279279;22;20023;-72
2023/10/02 08:13:17;;;;;;;10.70;4.38;;;20.80;76.70;;;;;;6278878;22;20022;-69
2023/10/02 08:15:46;;;;;;;13.93;4.75;;;20.80;76.60;;;;;;6279781;22;20122;-70
2023/10/02 08:18:18;;;;;;;12.10;5.32;;;20.80;76.60;;;;;;6278684;22;20026;-72
2023/10/02 08:20:45;;;;;;;13.18;5.05;;;20.90;76.70;;;;;;6279818;22;20023;-71
2023/10/02 08:23:23;;;;;;;12.90;5.10;;;20.80;76.60;;;;;;6279642;22;20019;-69
2023/10/02 08:26:00;;;;;;;;;;;20.80;76.60;;;;;;6306898;22;20752;-70
2023/10/02 08:28:30;;;;;;;13.25;4.93;;;20.90;76.60;;;;;;6279905;22;19915;-71
2023/10/02 08:31:02;;;;;;;11.95;4.85;;;20.90;76.60;;;;;;6280177;22;20012;-71
2023/10/02 08:33:31;;;;;;;11.25;5.15;;;20.90;76.60;;;;;;6278643;22;20027;-71
2023/10/02 08:36:09;;;;;;;14.57;5.63;;;20.90;76.60;;;;;;6307279;22;20076;-70
2023/10/02 08:38:35;;;;;;;11.80;5.32;;;20.90;76.40;;;;;;6279858;22;20019;-70
2023/10/02 08:41:06;;;;;;;13.40;5.85;;;20.90;76.30;;;;;;6278754;22;20399;-70
2023/10/02 08:43:32;;;;;;;11.15;5.03;;;20.90;76.20;;;;;;6279728;22;20025;-71
2023/10/02 08:45:58;;;;;;;13.15;5.40;;;20.90;76.20;;;;;;6279658;22;20090;-70
2023/10/02 08:48:25;;;;;;;14.07;5.72;;;20.90;76.20;;;;;;6306389;22;20011;-70
2023/10/02 08:50:57;;;;;;;15.43;5.95;;;21.00;76.20;;;;;;6254453;22;20022;-72
2023/10/02 08:53:23;;;;;;;15.75;5.85;;;21.00;76.20;;;;;;6278730;22;20023;-71
2023/10/02 08:56:01;;;;;;;15.20;6.28;;;21.00;76.20;;;;;;6279519;22;20046;-68
2023/10/02 08:58:28;;;;;;;14.75;6.60;;;21.00;76.20;;;;;;6256430;22;20347;-69
2023/10/02 09:03:42;;;;;;;13.63;6.55;;;21.00;76.30;;;;;;6279831;22;20342;-67
2023/10/02 09:11:44;;;;;;;18.27;7.30;;;21.10;76.50;;;;;;6307474;22;20019;-67
2023/10/02 09:14:16;;;;;;;20.17;7.55;;;21.10;76.50;;;;;;6279518;22;20094;-67
2023/10/02 09:16:45;;;;;;;17.42;6.85;;;21.10;76.50;;;;;;6306348;22;20015;-68
2023/10/02 09:19:30;;;;;;;19.73;7.35;;;21.10;76.40;;;;;;6279231;22;20011;-69
2023/10/02 09:22:06;;;;;;;18.63;6.95;;;21.10;76.40;;;;;;6306328;22;20474;-68
2023/10/02 09:24:40;;;;;;;17.92;6.88;;;21.10;76.30;;;;;;6306813;22;20090;-68
2023/10/02 09:27:30;;;;;;;18.83;7.95;;;21.20;76.30;;;;;;6279879;22;20022;-68
2023/10/02 09:30:21;;;;;;;17.85;7.35;;;21.20;76.30;;;;;;6305995;22;20026;-68
2023/10/02 09:32:51;;;;;;;17.48;6.82;;;21.20;76.30;;;;;;6280130;22;20019;-68
2023/10/02 09:35:25;;;;;;;16.25;7.05;;;21.20;76.80;;;;;;6278610;22;20015;-68
2023/10/02 09:37:59;;;;;;;18.50;8.05;;;21.20;76.20;;;;;;6279502;22;20103;-68
2023/10/02 09:40:27;;;;;;;18.05;7.57;;;21.20;76.20;;;;;;6280442;22;20141;-68
2023/10/02 09:42:56;;;;;;;;;;;21.20;76.10;;;;;;6279195;22;20019;-68
2023/10/02 09:45:30;;;;;;;18.73;7.43;;;21.20;76.10;;;;;;6280294;22;19921;-68
2023/10/02 09:47:59;;;;;;;17.05;7.50;;;21.20;76.10;;;;;;6279683;22;20047;-68
2023/10/02 09:50:26;;;;;;;18.00;8.18;;;21.20;76.10;;;;;;6278223;22;20012;-68
2023/10/02 09:52:58;;;;;;;20.17;8.47;;;21.20;76.10;;;;;;6229653;22;20019;-68
2023/10/02 09:55:41;;;;;;;16.58;7.22;;;21.20;76.10;;;;;;6228554;22;20301;-68
2023/10/02 09:58:26;;;;;;;19.23;8.05;;;21.20;76.10;;;;;;6255130;22;20061;-68
2023/10/02 10:01:33;;;;;;;20.27;7.88;;;21.20;76.10;;;;;;6257212;22;20023;-68
2023/10/02 10:03:59;;;;;;;18.58;7.38;;;21.20;76.10;;;;;;6278515;22;20020;-68
2023/10/02 10:06:28;;;;;;;14.57;7.13;;;21.30;76.10;;;;;;6254810;22;20018;-68
2023/10/02 10:11:43;;;;;;;18.15;7.32;;;21.30;76.10;;;;;;6280550;22;20054;-68
2023/10/02 10:14:37;;;;;;;16.27;7.18;;;21.30;76.10;;;;;;6256912;22;20064;-68
2023/10/02 10:17:17;;;;;;;13.93;6.60;;;21.30;76.00;;;;;;6281644;22;20149;-68
2023/10/02 10:20:08;;;;;;;15.55;7.03;;;21.20;76.00;;;;;;6280406;22;20094;-68
2023/10/02 10:22:50;;;;;;;16.38;6.90;;;21.30;76.00;;;;;;6255911;22;20319;-68
2023/10/02 10:25:22;;;;;;;17.27;6.95;;;21.30;76.00;;;;;;6279986;22;20310;-68
2023/10/02 10:27:54;;;;;;;18.73;7.63;;;21.30;76.00;;;;;;6308385;22;20053;-68
2023/10/02 10:30:24;;;;;;;19.08;7.97;;;21.30;76.60;;;;;;6281023;22;20019;-68
2023/10/02 10:35:48;;;;;;;14.95;7.05;;;21.30;76.00;;;;;;6280933;22;20027;-68
2023/10/02 10:38:21;;;;;;;17.50;7.63;;;21.20;76.00;;;;;;6280885;22;20015;-68
2023/10/02 10:40:50;;;;;;;18.30;7.70;;;21.20;76.00;;;;;;6279882;22;20022;-68
2023/10/02 10:43:20;;;;;;;15.15;6.65;;;21.30;76.00;;;;;;6280847;22;20015;-68
2023/10/02 10:45:48;;;;;;;15.45;7.05;;;21.30;76.00;;;;;;6280322;22;20076;-68
2023/10/02 10:48:33;;;;;;;18.00;7.20;;;21.30;76.00;;;;;;6280898;22;20046;-68
2023/10/02 10:51:06;;;;;;;16.23;7.43;;;21.20;75.90;;;;;;6280495;22;20012;-68
2023/10/02 10:53:32;;;;;;;17.65;8.32;;;21.20;75.90;;;;;;6307233;22;20072;-68
2023/10/02 10:56:17;;;;;;;17.23;7.82;;;21.30;76.00;;;;;;6280983;22;20019;-67
2023/10/02 10:58:44;;;;;;;17.13;7.22;;;21.20;76.00;;;;;;6308844;22;20019;-67
2023/10/02 11:01:16;;;;;;;16.40;7.60;;;21.30;76.00;;;;;;6279676;22;20339;-68
2023/10/02 11:03:44;;;;;;;17.05;7.07;;;21.30;76.00;;;;;;6281086;22;20068;-68
2023/10/02 11:06:10;;;;;;;15.77;7.43;;;21.30;76.00;;;;;;6280621;22;20019;-68
2023/10/02 11:08:40;;;;;;;15.05;7.22;;;21.30;76.00;;;;;;6280188;22;20086;-68
2023/10/02 11:11:19;;;;;;;18.38;7.97;;;21.30;76.00;;;;;;6281066;22;20019;-68
2023/10/02 11:13:55;;;;;;;18.45;7.65;;;21.30;76.10;;;;;;6281075;22;20015;-68
2023/10/02 11:16:31;;;;;;;;;;;21.30;76.00;;;;;;6308334;22;20242;-68
2023/10/02 11:22:14;;;;;;;18.50;7.25;;;21.20;76.00;;;;;;6279784;22;20027;-68
2023/10/02 11:24:43;;;;;;;14.85;7.10;;;21.30;76.00;;;;;;6308353;22;20459;-68
2023/10/02 11:27:12;;;;;;;16.35;7.30;;;21.30;75.90;;;;;;6280497;22;20019;-68
2023/10/02 11:29:41;;;;;;;16.65;7.63;;;21.30;75.90;;;;;;6280308;22;20015;-68
2023/10/02 11:32:19;;;;;;;14.45;6.68;;;21.30;75.90;;;;;;6308178;22;20051;-68
2023/10/02 11:34:58;;;;;;;16.05;6.68;;;21.30;75.90;;;;;;6279671;22;20012;-68
2023/10/02 11:37:25;;;;;;;16.52;7.30;;;21.40;75.90;;;;;;6255671;22;20011;-68
2023/10/02 11:39:50;;;;;;;14.55;6.50;;;21.40;75.90;;;;;;6280771;22;20023;-68
2023/10/02 11:42:18;;;;;;;13.75;6.70;;;21.30;75.90;;;;;;6279445;22;20088;-68
2023/10/02 11:44:44;;;;;;;16.92;7.32;;;21.30;75.90;;;;;;6308124;22;20435;-68
2023/10/02 11:47:12;;;;;;;13.13;6.47;;;21.40;75.90;;;;;;6280801;22;20090;-68
2023/10/02 11:49:38;;;;;;;14.02;6.38;;;21.30;75.90;;;;;;6307251;22;20026;-68
2023/10/02 11:52:04;;;;;;;16.40;7.10;;;21.30;75.90;;;;;;6280246;22;20019;-68
2023/10/02 11:54:35;;;;;;;14.73;7.15;;;21.40;75.90;;;;;;6279872;22;20072;-68
2023/10/02 11:57:01;;;;;;;15.25;6.43;;;21.40;75.90;;;;;;6279599;22;20450;-68
2023/10/02 11:59:30;;;;;;;13.68;6.40;;;21.40;75.90;;;;;;6307463;22;20098;-68
2023/10/02 12:01:57;;;;;;;13.50;6.80;;;21.40;75.90;;;;;;6280485;22;20095;-68
2023/10/02 12:04:23;;;;;;;13.75;6.75;;;21.40;75.90;;;;;;6306976;22;20058;-68
2023/10/02 12:06:52;;;;;;;16.13;6.35;;;21.40;75.90;;;;;;6280365;22;20049;-67
2023/10/02 12:09:19;;;;;;;13.90;6.45;;;21.40;75.90;;;;;;6280058;22;20136;-68
2023/10/02 12:11:45;;;;;;;14.43;7.35;;;21.40;75.80;;;;;;6279471;22;20047;-68
2023/10/02 12:14:10;;;;;;;12.82;6.82;;;21.40;76.40;;;;;;6280101;22;20011;-68
2023/10/02 12:16:38;;;;;;;15.00;6.85;;;21.40;75.80;;;;;;6307441;22;20043;-68
2023/10/02 12:19:04;;;;;;;14.10;6.83;;;21.40;75.80;;;;;;6279420;22;20087;-68
2023/10/02 12:21:29;;;;;;;13.25;6.68;;;21.40;75.80;;;;;;6279938;22;20025;-68
2023/10/02 12:23:58;;;;;;;15.38;6.72;;;21.40;76.40;;;;;;6280305;22;20094;-68
2023/10/02 12:26:25;;;;;;;12.65;6.20;;;21.40;75.80;;;;;;6278936;22;20019;-68
2023/10/02 12:28:51;;;;;;;14.02;6.10;;;21.40;75.70;;;;;;6280163;22;20019;-68
2023/10/02 12:31:19;;;;;;;13.32;6.80;;;21.50;75.80;;;;;;6278841;22;20098;-68
2023/10/02 12:33:46;;;;;;;14.98;6.75;;;21.50;75.80;;;;;;6307969;22;20056;-68
2023/10/02 12:36:19;;;;;;;13.38;6.30;;;21.50;75.80;;;;;;6279523;22;20026;-68
2023/10/02 12:38:46;;;;;;;13.88;6.18;;;21.50;75.80;;;;;;6306447;22;20019;-68
2023/10/02 12:41:15;;;;;;;12.05;5.68;;;21.50;75.70;;;;;;6279843;22;20090;-68
2023/10/02 12:43:45;;;;;;;15.25;6.35;;;21.50;75.60;;;;;;6279983;22;20045;-68
2023/10/02 12:46:14;;;;;;;13.02;6.60;;;21.60;75.70;;;;;;6278962;22;20427;-68
2023/10/02 12:48:48;;;;;;;15.70;6.40;;;21.60;75.60;;;;;;6279972;22;20011;-68
2023/10/02 12:51:14;;;;;;;13.75;6.18;;;21.60;75.60;;;;;;6279638;22;20017;-68
2023/10/02 12:53:40;;;;;;;12.57;5.85;;;21.60;75.60;;;;;;6278759;22;20070;-68
2023/10/02 12:56:07;;;;;;;11.00;5.88;;;21.60;75.60;;;;;;6279601;22;20335;-68
2023/10/02 12:58:33;;;;;;;14.90;6.97;;;21.60;75.50;;;;;;6280085;22;20458;-68
2023/10/02 13:01:00;;;;;;;13.35;5.97;;;21.70;75.50;;;;;;6278847;22;20073;-68
2023/10/02 13:03:28;;;;;;;13.98;5.90;;;21.70;75.50;;;;;;6279505;22;20339;-68
2023/10/02 13:05:57;;;;;;;11.57;5.30;;;21.60;75.40;;;;;;6306702;22;20023;-68
2023/10/02 13:08:24;;;;;;;12.82;6.43;;;21.70;75.50;;;;;;6278517;22;20050;-68
2023/10/02 13:10:49;;;;;;;12.68;5.90;;;21.70;75.50;;;;;;6279676;22;20065;-67
2023/10/02 13:13:15;;;;;;;11.90;5.38;;;21.70;75.40;;;;;;6279522;22;20015;-67
2023/10/02 13:15:41;;;;;;;12.52;5.53;;;21.70;75.40;;;;;;6306472;22;20462;-68
2023/10/02 13:18:06;;;;;;;12.88;6.65;;;21.70;75.40;;;;;;6279873;22;20022;-68
2023/10/02 13:20:33;;;;;;;11.70;5.95;;;21.70;75.40;;;;;;6278384;22;20019;-68
2023/10/02 13:22:58;;;;;;;11.95;5.68;;;21.70;75.50;;;;;;6279722;22;20015;-67
2023/10/02 13:25:26;;;;;;;11.07;5.25;;;21.70;75.50;;;;;;6279294;22;20047;-68
2023/10/02 13:27:52;;;;;;;12.77;5.40;;;21.70;75.50;;;;;;6306573;22;20015;-68
2023/10/02 13:30:25;;;;;;;11.07;5.30;;;21.70;75.40;;;;;;6307059;22;20022;-68
2023/10/02 13:32:51;;;;;;;10.73;5.60;;;21.70;75.50;;;;;;6279855;22;20034;-68
2023/10/02 13:35:17;;;;;;;13.50;5.97;;;21.70;75.50;;;;;;6305872;22;20051;-68
2023/10/02 13:37:43;;;;;;;13.35;5.93;;;21.60;75.40;;;;;;6279975;22;20232;-68